Miranda De Ebro, Spain
Current Conditions -  °F | °C
As of 3:30 AM on Monday 22 Dec 2014 (Local Time) from LEVT Reporting Station
Moderate Fog Moderate Fog  
Wind Chill: 37°   Ceiling: 100
Heat Index: 37°   Visibility: 0.15mi
Dew Point: 37°   Wind: 0mph
Humidity: 100%   Direction: NA
Pressure: 30.48"   Gusts: NA
Location:  42.69°N, 2.95°W
Report Text: LEVT 220230Z 00000KT 0250 R04/1000N FG VV001 03/03 Q1032
Loading
Personal Weather Stations






























Interactive Weather Map New forecast layout! Learn more

10-Day Weather Forecast

Advertisements
Track Severe Weather on mobile